• Join FlightAware (Why Join?)
  • Login
  • US Flag 
02:15PM EST


 

Airport Tracker/Info


-or-


 

Live Flight TrackerFlight Track Log ✈ SKW5631 ✈ 11-Jun-2013 ✈ KSFO - KBUR

Flight Track Log - Related Links

Times and Time Zones

All times are in EDT time to prevent confusion due to time zone crossing. See the SKW5631 flight status page for this flight to view local times or setup timezone preferences in your user account.

Time Position Orientation Groundspeed Altitude Reporting Facility
EDT Latitude Longitude Course Direction KTS MPH feet Rate Location/Type
09:59PM 37.3678 -122.0620 135° Southeast  Level Estimated
10:00PM 37.2838 -121.9580 135° Southeast  Level Estimated
10:01PM 37.1997 -121.8543 135° Southeast  Level Estimated
10:02PM 37.1156 -121.7508 136° Southeast  Level Estimated
10:03PM 37.0313 -121.6475 136° Southeast  Level Estimated
10:04PM 36.9470 -121.5445 136° Southeast  Level Estimated
10:05PM 36.8626 -121.4417 136° Southeast  Level Estimated
10:06PM 36.7781 -121.3391 136° Southeast  Level Estimated
10:07PM 36.6935 -121.2367 136° Southeast  Level Estimated
10:08PM 36.6088 -121.1346 136° Southeast  Level Estimated
10:09PM 36.5241 -121.0327 136° Southeast  Level Estimated
10:10PM 36.4392 -120.9310 136° Southeast  Level Estimated
10:11PM 36.3543 -120.8296 136° Southeast  Level Estimated
10:12PM 36.2693 -120.7283 136° Southeast  Level Estimated
10:13PM 36.1842 -120.6273 136° Southeast  Level Estimated
10:14PM 36.0990 -120.5265 136° Southeast  Level Estimated
10:15PM 36.0137 -120.4259 136° Southeast  Level Estimated
10:16PM 35.9283 -120.3256 136° Southeast  Level Estimated
10:17PM 35.8429 -120.2254 136° Southeast  Level Estimated
10:18PM 35.7574 -120.1255 137° Southeast  Level Estimated
10:19PM 35.6717 -120.0258 137° Southeast  Level Estimated
10:20PM 35.5861 -119.9263 137° Southeast  Level Estimated
10:21PM 35.5003 -119.8270 137° Southeast  Level Estimated
10:22PM 35.4144 -119.7279 137° Southeast  Level Estimated
10:23PM 35.3285 -119.6290 137° Southeast  Level Estimated
10:24PM 35.2425 -119.5304 137° Southeast  Level Estimated
10:25PM 35.1564 -119.4319 137° Southeast  Level Estimated
10:26PM 35.0702 -119.3337 137° Southeast  Level Estimated
10:27PM 34.9840 -119.2356 137° Southeast  Level Estimated
10:28PM 34.8976 -119.1378 137° Southeast  Level Estimated
10:29PM 34.8112 -119.0402 137° Southeast  Level Estimated
10:30PM 34.7247 -118.9428 137° Southeast  Level Estimated
10:31PM 34.6382 -118.8456 137° Southeast  Level Estimated
10:32PM 34.5515 -118.7486 137° Southeast  Level Estimated
10:33PM 34.4648 -118.6518 137° Southeast  Level Estimated
10:34PM 34.3780 -118.5552 137° Southeast  Level Estimated
10:35PM 34.2911 -118.4588 137° Southeast  Level Estimated
10:36PM 34.2042 -118.3625 138° Southeast  Level Estimated
10:37PM 34.2007 -118.3587 138° Southeast  Level Estimated
10:38PM 34.2007 -118.3587 140° Southeast  Level Estimated
10:39PM 34.2007 -118.3587 140° Southeast  Level Estimated
10:40PM 34.2007 -118.3587 140° Southeast  Level Estimated
10:41PM 34.2007 -118.3587 140° Southeast  Level Estimated
10:42PM 34.2007 -118.3587 140° Southeast  Level Estimated
10:43PM 34.2007 -118.3587 140° Southeast  Level Estimated
10:44PM 34.2007 -118.3587 140° Southeast  Level Estimated
10:45PM 34.2007 -118.3587 140° Southeast  Level Estimated
10:46PM 34.2007 -118.3587 140° Southeast  Level Estimated
10:47PM 34.2007 -118.3587 140° Southeast  Level Estimated
10:48PM 34.2007 -118.3587 140° Southeast  Level Estimated